Argyle, Iowa
Current Conditions -  °F | °C
As of 9:35 PM on Friday 24 Oct 2014 (Local Time) from KEOK Reporting Station
Overcast Overcast  
Wind Chill: 61°   Ceiling: 3800
Heat Index: 61°   Visibility: 10mi
Dew Point: 59°   Wind: 5mph
Humidity: 94%   Direction: 350°N
Pressure: 29.96"   Gusts: NA
Location:  40.53°N, 91.57°W
Report Text: KEOK 250235Z AUTO 35004KT 10SM BKN038 OVC045 16/15 A2996 RMK AO2
Loading
Personal Weather Stations






























Interactive Weather Map
Tropical Storm Tracking
New forecast layout! Learn more

10-Day Weather Forecast

Advertisements
Track Severe Weather on mobile